Lancaster, Canada
Current Conditions -  °F | °C
As of 9:53 PM on Monday 22 Dec 2014 (Local Time) from KMSS Reporting Station
Broken Clouds Broken Clouds  
Wind Chill:   Ceiling: 4400
Heat Index: 20°   Visibility: 7mi
Dew Point: 16°   Wind: 14mph
Humidity: 85%   Direction: 70°ENE
Pressure: 30.25"   Gusts: NA
Location:  45.13°N, 74.5°W
Report Text: KMSS 230253Z AUTO 07012KT 7SM BKN044 M07/M09 A3025 RMK AO2 SLP252 T10671089 58010
Loading
Personal Weather Stations






























Interactive Weather Map New forecast layout! Learn more

10-Day Weather Forecast

Advertisements
Track Severe Weather on mobile